sensor_id;sensor_type;location;lat;lon;timestamp;temperature;humidity
1994;DHT22;998;49.906;10.908;2023-01-29T00:01:59;0.40;99.90
1994;DHT22;998;49.906;10.908;2023-01-29T00:04:26;0.40;99.90
1994;DHT22;998;49.906;10.908;2023-01-29T00:06:55;0.40;99.90
1994;DHT22;998;49.906;10.908;2023-01-29T00:09:22;0.40;99.90
1994;DHT22;998;49.906;10.908;2023-01-29T00:11:49;0.40;99.90
1994;DHT22;998;49.906;10.908;2023-01-29T00:14:17;0.40;99.90
1994;DHT22;998;49.906;10.908;2023-01-29T00:16:46;0.30;99.90
1994;DHT22;998;49.906;10.908;2023-01-29T00:19:14;0.40;99.90
1994;DHT22;998;49.906;10.908;2023-01-29T00:21:42;0.40;99.90
1994;DHT22;998;49.906;10.908;2023-01-29T00:24:09;0.40;99.90
1994;DHT22;998;49.906;10.908;2023-01-29T00:26:37;0.30;99.90
1994;DHT22;998;49.906;10.908;2023-01-29T00:29:04;0.40;99.90
1994;DHT22;998;49.906;10.908;2023-01-29T00:31:32;0.40;99.90
1994;DHT22;998;49.906;10.908;2023-01-29T00:34:00;0.40;99.90
1994;DHT22;998;49.906;10.908;2023-01-29T00:36:27;0.40;99.90
1994;DHT22;998;49.906;10.908;2023-01-29T00:38:55;0.30;99.90
1994;DHT22;998;49.906;10.908;2023-01-29T00:41:26;0.30;99.90
1994;DHT22;998;49.906;10.908;2023-01-29T00:44:11;0.10;99.90
1994;DHT22;998;49.906;10.908;2023-01-29T00:46:56;0.00;99.90
1994;DHT22;998;49.906;10.908;2023-01-29T00:49:25;-0.20;99.90
1994;DHT22;998;49.906;10.908;2023-01-29T00:51:52;-0.10;99.90
1994;DHT22;998;49.906;10.908;2023-01-29T00:54:37;-0.10;99.90
1994;DHT22;998;49.906;10.908;2023-01-29T00:57:04;0.00;99.90
1994;DHT22;998;49.906;10.908;2023-01-29T00:59:32;-0.20;99.90
1994;DHT22;998;49.906;10.908;2023-01-29T01:01:59;-0.20;99.90
1994;DHT22;998;49.906;10.908;2023-01-29T01:04:45;-0.20;99.90
1994;DHT22;998;49.906;10.908;2023-01-29T01:07:12;-0.20;99.90
1994;DHT22;998;49.906;10.908;2023-01-29T01:09:40;-0.10;99.90
1994;DHT22;998;49.906;10.908;2023-01-29T01:12:24;-0.10;99.90
1994;DHT22;998;49.906;10.908;2023-01-29T01:14:52;-0.10;99.90
1994;DHT22;998;49.906;10.908;2023-01-29T01:17:19;-0.20;99.90
1994;DHT22;998;49.906;10.908;2023-01-29T01:19:48;-0.20;99.90
1994;DHT22;998;49.906;10.908;2023-01-29T01:22:16;-0.10;99.90
1994;DHT22;998;49.906;10.908;2023-01-29T01:24:43;-0.10;99.90
1994;DHT22;998;49.906;10.908;2023-01-29T01:27:12;-0.10;99.90
1994;DHT22;998;49.906;10.908;2023-01-29T01:29:39;0.00;99.90
1994;DHT22;998;49.906;10.908;2023-01-29T01:32:07;0.00;99.90
1994;DHT22;998;49.906;10.908;2023-01-29T01:34:34;0.00;99.90
1994;DHT22;998;49.906;10.908;2023-01-29T01:37:03;0.00;99.90
1994;DHT22;998;49.906;10.908;2023-01-29T01:39:31;0.00;99.90
1994;DHT22;998;49.906;10.908;2023-01-29T01:41:58;0.10;99.90
1994;DHT22;998;49.906;10.908;2023-01-29T01:44:52;0.20;99.90
1994;DHT22;998;49.906;10.908;2023-01-29T01:47:25;0.20;99.90
1994;DHT22;998;49.906;10.908;2023-01-29T01:49:55;0.20;99.90
1994;DHT22;998;49.906;10.908;2023-01-29T01:52:24;0.20;99.90
1994;DHT22;998;49.906;10.908;2023-01-29T01:54:52;0.20;99.90
1994;DHT22;998;49.906;10.908;2023-01-29T01:57:21;0.20;99.90
1994;DHT22;998;49.906;10.908;2023-01-29T01:59:55;0.20;99.90
1994;DHT22;998;49.906;10.908;2023-01-29T02:02:24;0.00;99.90
1994;DHT22;998;49.906;10.908;2023-01-29T02:05:11;-0.10;99.90
1994;DHT22;998;49.906;10.908;2023-01-29T02:07:58;-0.20;99.90
1994;DHT22;998;49.906;10.908;2023-01-29T02:10:45;-0.30;99.90
1994;DHT22;998;49.906;10.908;2023-01-29T02:13:13;-0.20;99.90
1994;DHT22;998;49.906;10.908;2023-01-29T02:15:43;-0.20;99.90
1994;DHT22;998;49.906;10.908;2023-01-29T02:18:14;-0.20;99.90
1994;DHT22;998;49.906;10.908;2023-01-29T02:20:47;-0.10;99.90
1994;DHT22;998;49.906;10.908;2023-01-29T02:23:31;0.00;99.90
1994;DHT22;998;49.906;10.908;2023-01-29T02:26:23;0.00;99.90
1994;DHT22;998;49.906;10.908;2023-01-29T02:29:01;0.00;99.90
1994;DHT22;998;49.906;10.908;2023-01-29T02:32:14;0.10;99.90
1994;DHT22;998;49.906;10.908;2023-01-29T02:34:51;0.10;99.90
1994;DHT22;998;49.906;10.908;2023-01-29T02:37:40;0.00;99.90
1994;DHT22;998;49.906;10.908;2023-01-29T02:40:16;0.10;99.90
1994;DHT22;998;49.906;10.908;2023-01-29T02:42:51;0.00;99.90
1994;DHT22;998;49.906;10.908;2023-01-29T02:45:23;-0.10;99.90
1994;DHT22;998;49.906;10.908;2023-01-29T02:47:57;-0.20;99.90
1994;DHT22;998;49.906;10.908;2023-01-29T02:50:29;-0.20;99.90
1994;DHT22;998;49.906;10.908;2023-01-29T02:53:01;-0.10;99.90
1994;DHT22;998;49.906;10.908;2023-01-29T02:55:34;0.00;99.90
1994;DHT22;998;49.906;10.908;2023-01-29T02:58:09;-0.10;99.90
1994;DHT22;998;49.906;10.908;2023-01-29T03:00:40;0.00;99.90
1994;DHT22;998;49.906;10.908;2023-01-29T03:03:13;0.00;99.90
1994;DHT22;998;49.906;10.908;2023-01-29T03:05:47;0.00;99.90
1994;DHT22;998;49.906;10.908;2023-01-29T03:08:22;0.00;99.90
1994;DHT22;998;49.906;10.908;2023-01-29T03:11:04;-0.10;99.90
1994;DHT22;998;49.906;10.908;2023-01-29T03:13:37;-0.10;99.90
1994;DHT22;998;49.906;10.908;2023-01-29T03:16:10;-0.10;99.90
1994;DHT22;998;49.906;10.908;2023-01-29T03:18:45;-0.20;99.90
1994;DHT22;998;49.906;10.908;2023-01-29T03:21:20;-0.20;99.90
1994;DHT22;998;49.906;10.908;2023-01-29T03:24:08;-0.10;99.90
1994;DHT22;998;49.906;10.908;2023-01-29T03:26:55;-0.10;99.90
1994;DHT22;998;49.906;10.908;2023-01-29T03:29:43;-0.10;99.90
1994;DHT22;998;49.906;10.908;2023-01-29T03:32:29;-0.10;99.90
1994;DHT22;998;49.906;10.908;2023-01-29T03:35:02;0.00;99.90
1994;DHT22;998;49.906;10.908;2023-01-29T03:37:33;0.00;99.90
1994;DHT22;998;49.906;10.908;2023-01-29T03:40:03;0.10;99.90
1994;DHT22;998;49.906;10.908;2023-01-29T03:42:40;0.10;99.90
1994;DHT22;998;49.906;10.908;2023-01-29T03:45:14;0.10;99.90
1994;DHT22;998;49.906;10.908;2023-01-29T03:47:46;0.10;99.90
1994;DHT22;998;49.906;10.908;2023-01-29T03:50:26;0.00;99.90
1994;DHT22;998;49.906;10.908;2023-01-29T03:53:00;0.00;99.90
1994;DHT22;998;49.906;10.908;2023-01-29T03:55:34;0.00;99.90
1994;DHT22;998;49.906;10.908;2023-01-29T03:58:08;0.10;99.90
1994;DHT22;998;49.906;10.908;2023-01-29T04:00:44;0.10;99.90
1994;DHT22;998;49.906;10.908;2023-01-29T04:03:18;0.00;99.90
1994;DHT22;998;49.906;10.908;2023-01-29T04:05:51;0.00;99.90
1994;DHT22;998;49.906;10.908;2023-01-29T04:08:26;0.00;99.90
1994;DHT22;998;49.906;10.908;2023-01-29T04:10:58;0.00;99.90
1994;DHT22;998;49.906;10.908;2023-01-29T04:13:29;0.00;99.90
1994;DHT22;998;49.906;10.908;2023-01-29T04:15:59;0.00;99.90
1994;DHT22;998;49.906;10.908;2023-01-29T04:18:28;0.00;99.90
1994;DHT22;998;49.906;10.908;2023-01-29T04:20:57;0.00;99.90
1994;DHT22;998;49.906;10.908;2023-01-29T04:23:26;-0.10;99.90
1994;DHT22;998;49.906;10.908;2023-01-29T04:26:08;-0.20;99.90
1994;DHT22;998;49.906;10.908;2023-01-29T04:28:52;-0.40;99.90
1994;DHT22;998;49.906;10.908;2023-01-29T04:31:22;-0.40;99.90
1994;DHT22;998;49.906;10.908;2023-01-29T04:33:59;-0.40;99.90
1994;DHT22;998;49.906;10.908;2023-01-29T04:36:36;-0.40;99.90
1994;DHT22;998;49.906;10.908;2023-01-29T04:39:12;-0.40;99.90
1994;DHT22;998;49.906;10.908;2023-01-29T04:41:47;-0.30;99.90
1994;DHT22;998;49.906;10.908;2023-01-29T04:44:20;-0.30;99.90
1994;DHT22;998;49.906;10.908;2023-01-29T04:46:59;-0.20;99.90
1994;DHT22;998;49.906;10.908;2023-01-29T04:49:32;-0.20;99.90
1994;DHT22;998;49.906;10.908;2023-01-29T04:52:07;-0.20;99.90
1994;DHT22;998;49.906;10.908;2023-01-29T04:54:46;-0.20;99.90
1994;DHT22;998;49.906;10.908;2023-01-29T04:57:21;-0.20;99.90
1994;DHT22;998;49.906;10.908;2023-01-29T04:59:55;-0.10;99.90
1994;DHT22;998;49.906;10.908;2023-01-29T05:02:26;-0.20;99.90
1994;DHT22;998;49.906;10.908;2023-01-29T05:04:54;-0.20;99.90
1994;DHT22;998;49.906;10.908;2023-01-29T05:07:28;-0.20;99.90
1994;DHT22;998;49.906;10.908;2023-01-29T05:09:57;-0.30;99.90
1994;DHT22;998;49.906;10.908;2023-01-29T05:12:25;-0.20;99.90
1994;DHT22;998;49.906;10.908;2023-01-29T05:14:57;-0.20;99.90
1994;DHT22;998;49.906;10.908;2023-01-29T05:17:27;-0.20;99.90
1994;DHT22;998;49.906;10.908;2023-01-29T05:19:55;-0.30;99.90
1994;DHT22;998;49.906;10.908;2023-01-29T05:22:25;-0.30;99.90
1994;DHT22;998;49.906;10.908;2023-01-29T05:24:52;-0.40;99.90
1994;DHT22;998;49.906;10.908;2023-01-29T05:27:24;-0.40;99.90
1994;DHT22;998;49.906;10.908;2023-01-29T05:30:12;-0.40;99.90
1994;DHT22;998;49.906;10.908;2023-01-29T05:32:39;-0.40;99.90
1994;DHT22;998;49.906;10.908;2023-01-29T05:35:07;-0.40;99.90
1994;DHT22;998;49.906;10.908;2023-01-29T05:37:36;-0.60;99.90
1994;DHT22;998;49.906;10.908;2023-01-29T05:40:04;-0.60;99.90
1994;DHT22;998;49.906;10.908;2023-01-29T05:42:34;-0.60;99.90
1994;DHT22;998;49.906;10.908;2023-01-29T05:45:01;-0.60;99.90
1994;DHT22;998;49.906;10.908;2023-01-29T05:47:29;-0.60;99.90
1994;DHT22;998;49.906;10.908;2023-01-29T05:49:56;-0.50;99.90
1994;DHT22;998;49.906;10.908;2023-01-29T05:52:24;-0.60;99.90
1994;DHT22;998;49.906;10.908;2023-01-29T05:54:52;-0.50;99.90
1994;DHT22;998;49.906;10.908;2023-01-29T05:57:20;-0.60;99.90
1994;DHT22;998;49.906;10.908;2023-01-29T05:59:47;-0.60;99.90
1994;DHT22;998;49.906;10.908;2023-01-29T06:02:15;-0.60;99.90
1994;DHT22;998;49.906;10.908;2023-01-29T06:04:42;-0.50;99.90
1994;DHT22;998;49.906;10.908;2023-01-29T06:07:10;-0.40;99.90
1994;DHT22;998;49.906;10.908;2023-01-29T06:09:37;-0.50;99.90
1994;DHT22;998;49.906;10.908;2023-01-29T06:12:06;-0.50;99.90
1994;DHT22;998;49.906;10.908;2023-01-29T06:14:33;-0.50;99.90
1994;DHT22;998;49.906;10.908;2023-01-29T06:17:01;-0.50;99.90
1994;DHT22;998;49.906;10.908;2023-01-29T06:19:29;-0.40;99.90
1994;DHT22;998;49.906;10.908;2023-01-29T06:21:57;-0.40;99.90
1994;DHT22;998;49.906;10.908;2023-01-29T06:24:24;-0.40;99.90
1994;DHT22;998;49.906;10.908;2023-01-29T06:26:51;-0.40;99.90
1994;DHT22;998;49.906;10.908;2023-01-29T06:29:20;-0.30;99.90
1994;DHT22;998;49.906;10.908;2023-01-29T06:31:48;-0.30;99.90
1994;DHT22;998;49.906;10.908;2023-01-29T06:34:15;-0.30;99.90
1994;DHT22;998;49.906;10.908;2023-01-29T06:36:43;-0.30;99.90
1994;DHT22;998;49.906;10.908;2023-01-29T06:39:10;-0.20;99.90
1994;DHT22;998;49.906;10.908;2023-01-29T06:41:37;-0.30;99.90
1994;DHT22;998;49.906;10.908;2023-01-29T06:44:05;-0.30;99.90
1994;DHT22;998;49.906;10.908;2023-01-29T06:46:34;-0.40;99.90
1994;DHT22;998;49.906;10.908;2023-01-29T06:49:02;-0.40;99.90
1994;DHT22;998;49.906;10.908;2023-01-29T06:51:29;-0.40;99.90
1994;DHT22;998;49.906;10.908;2023-01-29T06:53:57;-0.50;99.90
1994;DHT22;998;49.906;10.908;2023-01-29T06:56:24;-0.50;99.90
1994;DHT22;998;49.906;10.908;2023-01-29T06:58:51;-0.50;99.90
1994;DHT22;998;49.906;10.908;2023-01-29T07:01:19;-0.50;99.90
1994;DHT22;998;49.906;10.908;2023-01-29T07:03:49;-0.50;99.90
1994;DHT22;998;49.906;10.908;2023-01-29T07:06:17;-0.60;99.90
1994;DHT22;998;49.906;10.908;2023-01-29T07:08:45;-0.60;99.90
1994;DHT22;998;49.906;10.908;2023-01-29T07:11:12;-0.50;99.90
1994;DHT22;998;49.906;10.908;2023-01-29T07:13:39;-0.60;99.90
1994;DHT22;998;49.906;10.908;2023-01-29T07:16:07;-0.50;99.90
1994;DHT22;998;49.906;10.908;2023-01-29T07:18:34;-0.50;99.90
1994;DHT22;998;49.906;10.908;2023-01-29T07:21:05;-0.50;99.90
1994;DHT22;998;49.906;10.908;2023-01-29T07:23:33;-0.50;99.90
1994;DHT22;998;49.906;10.908;2023-01-29T07:26:01;-0.40;99.90
1994;DHT22;998;49.906;10.908;2023-01-29T07:28:29;-0.40;99.90
1994;DHT22;998;49.906;10.908;2023-01-29T07:30:57;-0.40;99.90
1994;DHT22;998;49.906;10.908;2023-01-29T07:33:24;-0.40;99.90
1994;DHT22;998;49.906;10.908;2023-01-29T07:35:52;-0.40;99.90
1994;DHT22;998;49.906;10.908;2023-01-29T07:38:21;-0.40;99.90
1994;DHT22;998;49.906;10.908;2023-01-29T07:40:51;-0.40;99.90
1994;DHT22;998;49.906;10.908;2023-01-29T07:43:18;-0.50;99.90
1994;DHT22;998;49.906;10.908;2023-01-29T07:45:45;-0.40;99.90
1994;DHT22;998;49.906;10.908;2023-01-29T07:48:13;-0.40;99.90
1994;DHT22;998;49.906;10.908;2023-01-29T07:50:40;-0.40;99.90
1994;DHT22;998;49.906;10.908;2023-01-29T07:53:12;-0.40;99.90
1994;DHT22;998;49.906;10.908;2023-01-29T07:55:43;-0.40;99.90
1994;DHT22;998;49.906;10.908;2023-01-29T07:58:10;-0.60;99.90
1994;DHT22;998;49.906;10.908;2023-01-29T08:00:38;-0.60;99.90
1994;DHT22;998;49.906;10.908;2023-01-29T08:03:08;-0.50;99.90
1994;DHT22;998;49.906;10.908;2023-01-29T08:05:37;-0.60;99.90
1994;DHT22;998;49.906;10.908;2023-01-29T08:08:04;-0.70;99.90
1994;DHT22;998;49.906;10.908;2023-01-29T08:10:33;-0.80;99.90
1994;DHT22;998;49.906;10.908;2023-01-29T08:13:02;-0.70;99.90
1994;DHT22;998;49.906;10.908;2023-01-29T08:15:32;-0.80;99.90
1994;DHT22;998;49.906;10.908;2023-01-29T08:18:01;-0.70;99.90
1994;DHT22;998;49.906;10.908;2023-01-29T08:20:28;-0.50;99.90
1994;DHT22;998;49.906;10.908;2023-01-29T08:22:59;-0.50;99.90
1994;DHT22;998;49.906;10.908;2023-01-29T08:25:28;-0.40;99.90
1994;DHT22;998;49.906;10.908;2023-01-29T08:27:56;-0.40;99.90
1994;DHT22;998;49.906;10.908;2023-01-29T08:30:26;-0.50;99.90
1994;DHT22;998;49.906;10.908;2023-01-29T08:32:53;-0.50;99.90
1994;DHT22;998;49.906;10.908;2023-01-29T08:35:21;-0.60;99.90
1994;DHT22;998;49.906;10.908;2023-01-29T08:37:52;-0.60;99.90
1994;DHT22;998;49.906;10.908;2023-01-29T08:40:20;-0.40;99.90
1994;DHT22;998;49.906;10.908;2023-01-29T08:42:47;-0.40;99.90
1994;DHT22;998;49.906;10.908;2023-01-29T08:45:15;-0.40;99.90
1994;DHT22;998;49.906;10.908;2023-01-29T08:47:48;-0.40;99.90
1994;DHT22;998;49.906;10.908;2023-01-29T08:50:16;-0.40;99.90
1994;DHT22;998;49.906;10.908;2023-01-29T08:52:44;-0.50;99.90
1994;DHT22;998;49.906;10.908;2023-01-29T08:55:12;-0.40;99.90
1994;DHT22;998;49.906;10.908;2023-01-29T08:57:39;-0.50;99.90
1994;DHT22;998;49.906;10.908;2023-01-29T09:00:08;-0.50;99.90
1994;DHT22;998;49.906;10.908;2023-01-29T09:02:35;-0.40;99.90
1994;DHT22;998;49.906;10.908;2023-01-29T09:05:04;-0.40;99.90
1994;DHT22;998;49.906;10.908;2023-01-29T09:07:32;-0.40;99.90
1994;DHT22;998;49.906;10.908;2023-01-29T09:09:59;-0.30;99.90
1994;DHT22;998;49.906;10.908;2023-01-29T09:12:27;-0.30;99.90
1994;DHT22;998;49.906;10.908;2023-01-29T09:14:54;-0.40;99.90
1994;DHT22;998;49.906;10.908;2023-01-29T09:17:21;-0.50;99.90
1994;DHT22;998;49.906;10.908;2023-01-29T09:19:48;-0.50;99.90
1994;DHT22;998;49.906;10.908;2023-01-29T09:22:18;-0.50;99.90
1994;DHT22;998;49.906;10.908;2023-01-29T09:24:44;-0.40;99.90
1994;DHT22;998;49.906;10.908;2023-01-29T09:27:12;-0.60;99.90
1994;DHT22;998;49.906;10.908;2023-01-29T09:29:39;-0.70;99.90
1994;DHT22;998;49.906;10.908;2023-01-29T09:32:06;-0.80;99.90
1994;DHT22;998;49.906;10.908;2023-01-29T09:34:33;-0.90;99.90
1994;DHT22;998;49.906;10.908;2023-01-29T09:37:00;-0.90;99.90
1994;DHT22;998;49.906;10.908;2023-01-29T09:39:29;-0.70;99.90
1994;DHT22;998;49.906;10.908;2023-01-29T09:42:02;-0.60;99.90
1994;DHT22;998;49.906;10.908;2023-01-29T09:44:45;-0.50;99.90
1994;DHT22;998;49.906;10.908;2023-01-29T09:47:15;-0.50;99.90
1994;DHT22;998;49.906;10.908;2023-01-29T09:49:47;-0.40;99.90
1994;DHT22;998;49.906;10.908;2023-01-29T09:52:19;-0.60;99.90
1994;DHT22;998;49.906;10.908;2023-01-29T09:54:55;-0.60;99.90
1994;DHT22;998;49.906;10.908;2023-01-29T09:57:26;-0.70;99.90
1994;DHT22;998;49.906;10.908;2023-01-29T09:59:55;-0.60;99.90
1994;DHT22;998;49.906;10.908;2023-01-29T10:02:40;-0.50;99.90
1994;DHT22;998;49.906;10.908;2023-01-29T10:05:19;-0.50;99.90
1994;DHT22;998;49.906;10.908;2023-01-29T10:08:25;-0.40;99.90
1994;DHT22;998;49.906;10.908;2023-01-29T10:11:01;-0.30;99.90
1994;DHT22;998;49.906;10.908;2023-01-29T10:13:39;-0.20;99.90
1994;DHT22;998;49.906;10.908;2023-01-29T10:16:23;-0.10;99.90
1994;DHT22;998;49.906;10.908;2023-01-29T10:19:15;-0.10;99.90
1994;DHT22;998;49.906;10.908;2023-01-29T10:21:55;-0.10;99.90
1994;DHT22;998;49.906;10.908;2023-01-29T10:24:35;-0.10;99.90
1994;DHT22;998;49.906;10.908;2023-01-29T10:27:12;-0.10;99.90
1994;DHT22;998;49.906;10.908;2023-01-29T10:29:42;-0.10;99.90
1994;DHT22;998;49.906;10.908;2023-01-29T10:32:14;-0.20;99.90
1994;DHT22;998;49.906;10.908;2023-01-29T10:34:47;-0.30;99.90
1994;DHT22;998;49.906;10.908;2023-01-29T10:37:17;-0.20;99.90
1994;DHT22;998;49.906;10.908;2023-01-29T10:39:46;-0.20;99.90
1994;DHT22;998;49.906;10.908;2023-01-29T10:42:23;-0.20;99.90
1994;DHT22;998;49.906;10.908;2023-01-29T10:45:04;-0.20;99.90
1994;DHT22;998;49.906;10.908;2023-01-29T10:50:46;0.00;99.90
1994;DHT22;998;49.906;10.908;2023-01-29T10:53:24;-0.10;99.90
1994;DHT22;998;49.906;10.908;2023-01-29T10:55:59;0.00;99.90
1994;DHT22;998;49.906;10.908;2023-01-29T10:58:35;0.00;99.90
1994;DHT22;998;49.906;10.908;2023-01-29T11:01:05;0.00;99.90
1994;DHT22;998;49.906;10.908;2023-01-29T11:03:32;0.00;99.90
1994;DHT22;998;49.906;10.908;2023-01-29T11:06:14;0.00;99.90
1994;DHT22;998;49.906;10.908;2023-01-29T11:08:47;0.10;99.90
1994;DHT22;998;49.906;10.908;2023-01-29T11:11:18;0.20;99.90
1994;DHT22;998;49.906;10.908;2023-01-29T11:13:52;0.20;99.90
1994;DHT22;998;49.906;10.908;2023-01-29T11:16:22;0.20;99.90
1994;DHT22;998;49.906;10.908;2023-01-29T11:18:52;0.30;99.90
1994;DHT22;998;49.906;10.908;2023-01-29T11:21:20;0.30;99.90
1994;DHT22;998;49.906;10.908;2023-01-29T11:23:47;0.30;99.90
1994;DHT22;998;49.906;10.908;2023-01-29T11:26:18;0.30;99.90
1994;DHT22;998;49.906;10.908;2023-01-29T11:28:49;0.30;99.90
1994;DHT22;998;49.906;10.908;2023-01-29T11:31:19;0.30;99.90
1994;DHT22;998;49.906;10.908;2023-01-29T11:33:49;0.30;99.90
1994;DHT22;998;49.906;10.908;2023-01-29T11:36:24;0.30;99.90
1994;DHT22;998;49.906;10.908;2023-01-29T11:39:18;0.40;99.90
1994;DHT22;998;49.906;10.908;2023-01-29T11:41:53;0.30;99.90
1994;DHT22;998;49.906;10.908;2023-01-29T11:44:28;0.30;99.90
1994;DHT22;998;49.906;10.908;2023-01-29T11:46:58;0.30;99.90
1994;DHT22;998;49.906;10.908;2023-01-29T11:49:34;0.40;99.90
1994;DHT22;998;49.906;10.908;2023-01-29T11:52:04;0.50;99.90
1994;DHT22;998;49.906;10.908;2023-01-29T11:54:37;0.60;99.90
1994;DHT22;998;49.906;10.908;2023-01-29T11:57:18;0.80;99.90
1994;DHT22;998;49.906;10.908;2023-01-29T11:59:51;1.00;99.90
1994;DHT22;998;49.906;10.908;2023-01-29T12:02:25;1.00;99.90
1994;DHT22;998;49.906;10.908;2023-01-29T12:04:56;1.10;99.90
1994;DHT22;998;49.906;10.908;2023-01-29T12:07:25;1.20;99.90
1994;DHT22;998;49.906;10.908;2023-01-29T12:09:54;1.30;99.90
1994;DHT22;998;49.906;10.908;2023-01-29T12:12:31;1.30;99.90
1994;DHT22;998;49.906;10.908;2023-01-29T12:15:14;1.30;99.90
1994;DHT22;998;49.906;10.908;2023-01-29T12:17:47;1.30;99.90
1994;DHT22;998;49.906;10.908;2023-01-29T12:20:21;1.10;99.90
1994;DHT22;998;49.906;10.908;2023-01-29T12:22:52;1.10;99.90
1994;DHT22;998;49.906;10.908;2023-01-29T12:25:24;0.80;99.90
1994;DHT22;998;49.906;10.908;2023-01-29T12:28:02;0.80;99.90
1994;DHT22;998;49.906;10.908;2023-01-29T12:30:39;0.70;99.90
1994;DHT22;998;49.906;10.908;2023-01-29T12:33:17;0.90;99.90
1994;DHT22;998;49.906;10.908;2023-01-29T12:35:49;1.10;99.90
1994;DHT22;998;49.906;10.908;2023-01-29T12:38:21;1.20;99.90
1994;DHT22;998;49.906;10.908;2023-01-29T12:40:51;1.30;99.90
1994;DHT22;998;49.906;10.908;2023-01-29T12:43:25;1.30;99.90
1994;DHT22;998;49.906;10.908;2023-01-29T12:45:57;1.20;99.90
1994;DHT22;998;49.906;10.908;2023-01-29T12:48:27;1.20;99.90
1994;DHT22;998;49.906;10.908;2023-01-29T12:51:02;1.40;99.90
1994;DHT22;998;49.906;10.908;2023-01-29T12:53:33;1.50;99.90
1994;DHT22;998;49.906;10.908;2023-01-29T12:56:04;1.40;99.90
1994;DHT22;998;49.906;10.908;2023-01-29T12:58:37;1.60;99.90
1994;DHT22;998;49.906;10.908;2023-01-29T13:01:16;1.50;99.90
1994;DHT22;998;49.906;10.908;2023-01-29T13:03:51;1.40;99.90
1994;DHT22;998;49.906;10.908;2023-01-29T13:06:24;1.20;99.90
1994;DHT22;998;49.906;10.908;2023-01-29T13:08:55;1.00;99.90
1994;DHT22;998;49.906;10.908;2023-01-29T13:11:26;1.00;99.90
1994;DHT22;998;49.906;10.908;2023-01-29T13:13:58;1.10;99.90
1994;DHT22;998;49.906;10.908;2023-01-29T13:16:32;1.30;99.90
1994;DHT22;998;49.906;10.908;2023-01-29T13:19:05;1.40;99.90
1994;DHT22;998;49.906;10.908;2023-01-29T13:21:36;1.60;99.90
1994;DHT22;998;49.906;10.908;2023-01-29T13:24:11;1.80;99.90
1994;DHT22;998;49.906;10.908;2023-01-29T13:26:40;2.10;99.90
1994;DHT22;998;49.906;10.908;2023-01-29T13:29:20;2.20;99.90
1994;DHT22;998;49.906;10.908;2023-01-29T13:31:50;1.80;99.90
1994;DHT22;998;49.906;10.908;2023-01-29T13:34:22;1.60;99.90
1994;DHT22;998;49.906;10.908;2023-01-29T13:36:51;1.40;99.90
1994;DHT22;998;49.906;10.908;2023-01-29T13:39:23;1.50;99.90
1994;DHT22;998;49.906;10.908;2023-01-29T13:41:55;1.70;99.90
1994;DHT22;998;49.906;10.908;2023-01-29T13:44:25;1.70;99.90
1994;DHT22;998;49.906;10.908;2023-01-29T13:46:57;1.80;99.90
1994;DHT22;998;49.906;10.908;2023-01-29T13:49:34;1.90;99.90
1994;DHT22;998;49.906;10.908;2023-01-29T13:52:26;2.10;99.90
1994;DHT22;998;49.906;10.908;2023-01-29T13:54:58;2.10;99.90
1994;DHT22;998;49.906;10.908;2023-01-29T13:57:36;2.00;99.90
1994;DHT22;998;49.906;10.908;2023-01-29T14:03:53;2.00;99.90
1994;DHT22;998;49.906;10.908;2023-01-29T14:10:00;1.90;99.90
1994;DHT22;998;49.906;10.908;2023-01-29T14:13:24;2.10;99.90
1994;DHT22;998;49.906;10.908;2023-01-29T14:19:00;1.80;99.90
1994;DHT22;998;49.906;10.908;2023-01-29T14:21:30;1.80;99.90
1994;DHT22;998;49.906;10.908;2023-01-29T14:24:06;1.80;99.90
1994;DHT22;998;49.906;10.908;2023-01-29T14:26:42;1.80;99.90
1994;DHT22;998;49.906;10.908;2023-01-29T14:29:18;1.80;99.90
1994;DHT22;998;49.906;10.908;2023-01-29T14:31:49;1.80;99.90
1994;DHT22;998;49.906;10.908;2023-01-29T14:34:24;1.70;99.90
1994;DHT22;998;49.906;10.908;2023-01-29T14:36:55;1.70;99.90
1994;DHT22;998;49.906;10.908;2023-01-29T14:39:29;1.90;99.90
1994;DHT22;998;49.906;10.908;2023-01-29T14:41:58;1.80;99.90
1994;DHT22;998;49.906;10.908;2023-01-29T14:47:52;1.90;99.90
1994;DHT22;998;49.906;10.908;2023-01-29T14:50:45;1.90;99.90
1994;DHT22;998;49.906;10.908;2023-01-29T14:53:19;1.80;99.90
1994;DHT22;998;49.906;10.908;2023-01-29T14:55:51;1.80;99.90
1994;DHT22;998;49.906;10.908;2023-01-29T14:58:25;1.90;99.90
1994;DHT22;998;49.906;10.908;2023-01-29T15:00:55;1.80;99.90
1994;DHT22;998;49.906;10.908;2023-01-29T15:03:33;1.80;99.90
1994;DHT22;998;49.906;10.908;2023-01-29T15:06:04;1.80;99.90
1994;DHT22;998;49.906;10.908;2023-01-29T15:08:36;1.70;99.90
1994;DHT22;998;49.906;10.908;2023-01-29T15:11:08;1.70;99.90
1994;DHT22;998;49.906;10.908;2023-01-29T15:14:05;1.70;99.90
1994;DHT22;998;49.906;10.908;2023-01-29T15:16:43;1.50;99.90
1994;DHT22;998;49.906;10.908;2023-01-29T15:19:15;1.40;99.90
1994;DHT22;998;49.906;10.908;2023-01-29T15:22:05;1.40;99.90
1994;DHT22;998;49.906;10.908;2023-01-29T15:24:34;1.30;99.90
1994;DHT22;998;49.906;10.908;2023-01-29T15:27:01;1.30;99.90
1994;DHT22;998;49.906;10.908;2023-01-29T15:29:29;1.30;99.90
1994;DHT22;998;49.906;10.908;2023-01-29T15:31:57;1.30;99.90
1994;DHT22;998;49.906;10.908;2023-01-29T15:34:25;1.30;99.90
1994;DHT22;998;49.906;10.908;2023-01-29T15:36:52;1.50;99.90
1994;DHT22;998;49.906;10.908;2023-01-29T15:39:23;1.50;99.90
1994;DHT22;998;49.906;10.908;2023-01-29T15:42:11;1.60;99.90
1994;DHT22;998;49.906;10.908;2023-01-29T15:44:43;1.60;99.90
1994;DHT22;998;49.906;10.908;2023-01-29T15:47:12;1.60;99.90
1994;DHT22;998;49.906;10.908;2023-01-29T15:49:40;1.30;99.90
1994;DHT22;998;49.906;10.908;2023-01-29T15:52:15;1.10;99.90
1994;DHT22;998;49.906;10.908;2023-01-29T15:54:45;1.10;99.90
1994;DHT22;998;49.906;10.908;2023-01-29T15:57:21;1.00;99.90
1994;DHT22;998;49.906;10.908;2023-01-29T15:59:49;0.90;99.90
1994;DHT22;998;49.906;10.908;2023-01-29T16:02:20;0.90;99.90
1994;DHT22;998;49.906;10.908;2023-01-29T16:04:47;0.90;99.90
1994;DHT22;998;49.906;10.908;2023-01-29T16:07:15;0.80;99.90
1994;DHT22;998;49.906;10.908;2023-01-29T16:09:45;0.80;99.90
1994;DHT22;998;49.906;10.908;2023-01-29T16:12:13;0.70;99.90
1994;DHT22;998;49.906;10.908;2023-01-29T16:14:42;0.80;99.90
1994;DHT22;998;49.906;10.908;2023-01-29T16:17:24;0.80;99.90
1994;DHT22;998;49.906;10.908;2023-01-29T16:19:55;0.80;99.90
1994;DHT22;998;49.906;10.908;2023-01-29T16:22:25;0.80;99.90
1994;DHT22;998;49.906;10.908;2023-01-29T16:24:55;0.80;99.90
1994;DHT22;998;49.906;10.908;2023-01-29T16:27:24;0.80;99.90
1994;DHT22;998;49.906;10.908;2023-01-29T16:29:52;0.80;99.90
1994;DHT22;998;49.906;10.908;2023-01-29T16:32:20;0.80;99.90
1994;DHT22;998;49.906;10.908;2023-01-29T16:34:48;0.70;99.90
1994;DHT22;998;49.906;10.908;2023-01-29T16:37:21;0.70;99.90
1994;DHT22;998;49.906;10.908;2023-01-29T16:39:49;0.70;99.90
1994;DHT22;998;49.906;10.908;2023-01-29T16:42:25;0.70;99.90
1994;DHT22;998;49.906;10.908;2023-01-29T16:44:58;0.70;99.90
1994;DHT22;998;49.906;10.908;2023-01-29T16:47:29;0.60;99.90
1994;DHT22;998;49.906;10.908;2023-01-29T16:49:58;0.70;99.90
1994;DHT22;998;49.906;10.908;2023-01-29T16:52:27;0.70;99.90
1994;DHT22;998;49.906;10.908;2023-01-29T16:55:18;0.70;99.90
1994;DHT22;998;49.906;10.908;2023-01-29T16:57:50;0.70;99.90
1994;DHT22;998;49.906;10.908;2023-01-29T17:00:21;0.70;99.90